sensor_id;sensor_type;location;lat;lon;timestamp;P1;durP1;ratioP1;P2;durP2;ratioP2
65896;SDS011;52677;50.898;10.854;2023-07-24T00:00:29;2.58;;;1.55;;
65896;SDS011;52677;50.898;10.854;2023-07-24T00:02:29;2.53;;;1.42;;
65896;SDS011;52677;50.898;10.854;2023-07-24T00:04:30;1.88;;;1.45;;
65896;SDS011;52677;50.898;10.854;2023-07-24T00:06:31;3.08;;;1.70;;
65896;SDS011;52677;50.898;10.854;2023-07-24T00:08:31;5.72;;;1.75;;
65896;SDS011;52677;50.898;10.854;2023-07-24T00:10:32;2.40;;;1.50;;
65896;SDS011;52677;50.898;10.854;2023-07-24T00:12:32;4.03;;;1.33;;
65896;SDS011;52677;50.898;10.854;2023-07-24T00:14:33;3.05;;;1.70;;
65896;SDS011;52677;50.898;10.854;2023-07-24T00:28:20;4.28;;;1.63;;
65896;SDS011;52677;50.898;10.854;2023-07-24T00:30:20;3.35;;;1.70;;
65896;SDS011;52677;50.898;10.854;2023-07-24T00:32:20;3.88;;;1.90;;
65896;SDS011;52677;50.898;10.854;2023-07-24T00:34:21;2.67;;;1.70;;
65896;SDS011;52677;50.898;10.854;2023-07-24T00:36:21;4.68;;;2.13;;
65896;SDS011;52677;50.898;10.854;2023-07-24T00:38:21;4.25;;;2.17;;
65896;SDS011;52677;50.898;10.854;2023-07-24T00:40:22;3.35;;;2.03;;
65896;SDS011;52677;50.898;10.854;2023-07-24T00:42:22;4.57;;;1.80;;
65896;SDS011;52677;50.898;10.854;2023-07-24T00:44:22;3.42;;;1.88;;
65896;SDS011;52677;50.898;10.854;2023-07-24T00:46:23;7.32;;;2.15;;
65896;SDS011;52677;50.898;10.854;2023-07-24T00:48:24;3.78;;;2.10;;
65896;SDS011;52677;50.898;10.854;2023-07-24T00:50:24;3.72;;;2.08;;
65896;SDS011;52677;50.898;10.854;2023-07-24T00:52:25;2.60;;;2.00;;
65896;SDS011;52677;50.898;10.854;2023-07-24T00:54:25;3.25;;;1.75;;
65896;SDS011;52677;50.898;10.854;2023-07-24T00:56:29;2.70;;;1.75;;
65896;SDS011;52677;50.898;10.854;2023-07-24T00:58:31;6.70;;;1.90;;
65896;SDS011;52677;50.898;10.854;2023-07-24T01:00:33;3.05;;;1.70;;
65896;SDS011;52677;50.898;10.854;2023-07-24T01:02:34;2.83;;;1.88;;
65896;SDS011;52677;50.898;10.854;2023-07-24T01:04:34;4.35;;;2.10;;
65896;SDS011;52677;50.898;10.854;2023-07-24T01:06:35;3.05;;;1.80;;
65896;SDS011;52677;50.898;10.854;2023-07-24T01:08:36;3.72;;;1.70;;
65896;SDS011;52677;50.898;10.854;2023-07-24T01:10:36;2.50;;;1.90;;
65896;SDS011;52677;50.898;10.854;2023-07-24T01:14:44;3.08;;;1.83;;
65896;SDS011;52677;50.898;10.854;2023-07-24T01:16:47;3.30;;;1.98;;
65896;SDS011;52677;50.898;10.854;2023-07-24T01:18:49;4.03;;;2.05;;
65896;SDS011;52677;50.898;10.854;2023-07-24T01:20:53;2.60;;;1.83;;
65896;SDS011;52677;50.898;10.854;2023-07-24T01:25:31;6.18;;;1.70;;
65896;SDS011;52677;50.898;10.854;2023-07-24T01:27:42;4.15;;;2.05;;
65896;SDS011;52677;50.898;10.854;2023-07-24T01:29:44;3.00;;;1.90;;
65896;SDS011;52677;50.898;10.854;2023-07-24T01:31:44;2.40;;;1.73;;
65896;SDS011;52677;50.898;10.854;2023-07-24T01:33:44;3.13;;;2.00;;
65896;SDS011;52677;50.898;10.854;2023-07-24T01:35:45;4.82;;;1.83;;
65896;SDS011;52677;50.898;10.854;2023-07-24T01:37:50;3.30;;;2.33;;
65896;SDS011;52677;50.898;10.854;2023-07-24T01:39:51;4.50;;;2.70;;
65896;SDS011;52677;50.898;10.854;2023-07-24T01:41:53;3.58;;;1.92;;
65896;SDS011;52677;50.898;10.854;2023-07-24T01:43:53;2.53;;;1.75;;
65896;SDS011;52677;50.898;10.854;2023-07-24T01:45:55;4.68;;;1.98;;
65896;SDS011;52677;50.898;10.854;2023-07-24T01:47:55;3.58;;;2.38;;
65896;SDS011;52677;50.898;10.854;2023-07-24T01:49:56;3.05;;;1.92;;
65896;SDS011;52677;50.898;10.854;2023-07-24T01:51:56;3.28;;;2.20;;
65896;SDS011;52677;50.898;10.854;2023-07-24T01:53:57;4.55;;;2.28;;
65896;SDS011;52677;50.898;10.854;2023-07-24T01:55:58;4.15;;;2.17;;
65896;SDS011;52677;50.898;10.854;2023-07-24T01:57:58;2.70;;;1.90;;
65896;SDS011;52677;50.898;10.854;2023-07-24T01:59:58;2.92;;;2.10;;
65896;SDS011;52677;50.898;10.854;2023-07-24T02:01:59;3.50;;;2.00;;
65896;SDS011;52677;50.898;10.854;2023-07-24T02:03:59;3.03;;;2.17;;
65896;SDS011;52677;50.898;10.854;2023-07-24T02:06:00;5.22;;;2.22;;
65896;SDS011;52677;50.898;10.854;2023-07-24T02:08:00;4.78;;;2.30;;
65896;SDS011;52677;50.898;10.854;2023-07-24T02:10:01;6.90;;;2.40;;
65896;SDS011;52677;50.898;10.854;2023-07-24T02:12:01;3.45;;;2.15;;
65896;SDS011;52677;50.898;10.854;2023-07-24T02:14:02;3.58;;;2.42;;
65896;SDS011;52677;50.898;10.854;2023-07-24T02:16:02;4.95;;;2.53;;
65896;SDS011;52677;50.898;10.854;2023-07-24T02:18:04;4.88;;;2.40;;
65896;SDS011;52677;50.898;10.854;2023-07-24T02:20:04;5.13;;;2.20;;
65896;SDS011;52677;50.898;10.854;2023-07-24T02:22:05;9.98;;;2.67;;
65896;SDS011;52677;50.898;10.854;2023-07-24T02:24:05;5.47;;;2.22;;
65896;SDS011;52677;50.898;10.854;2023-07-24T02:26:05;3.10;;;2.35;;
65896;SDS011;52677;50.898;10.854;2023-07-24T02:28:06;3.85;;;2.25;;
65896;SDS011;52677;50.898;10.854;2023-07-24T02:30:06;4.38;;;2.50;;
65896;SDS011;52677;50.898;10.854;2023-07-24T02:32:07;4.00;;;2.33;;
65896;SDS011;52677;50.898;10.854;2023-07-24T02:34:07;4.28;;;2.40;;
65896;SDS011;52677;50.898;10.854;2023-07-24T02:36:08;4.90;;;2.38;;
65896;SDS011;52677;50.898;10.854;2023-07-24T02:38:08;5.00;;;2.53;;
65896;SDS011;52677;50.898;10.854;2023-07-24T02:40:09;3.63;;;2.22;;
65896;SDS011;52677;50.898;10.854;2023-07-24T02:42:09;3.83;;;2.40;;
65896;SDS011;52677;50.898;10.854;2023-07-24T02:44:10;3.92;;;2.38;;
65896;SDS011;52677;50.898;10.854;2023-07-24T02:46:10;4.43;;;2.45;;
65896;SDS011;52677;50.898;10.854;2023-07-24T02:48:10;4.50;;;2.75;;
65896;SDS011;52677;50.898;10.854;2023-07-24T02:50:11;5.28;;;2.38;;
65896;SDS011;52677;50.898;10.854;2023-07-24T02:52:11;3.63;;;2.15;;
65896;SDS011;52677;50.898;10.854;2023-07-24T02:54:11;2.92;;;2.20;;
65896;SDS011;52677;50.898;10.854;2023-07-24T02:56:12;4.10;;;2.67;;
65896;SDS011;52677;50.898;10.854;2023-07-24T02:58:12;7.18;;;2.70;;
65896;SDS011;52677;50.898;10.854;2023-07-24T03:00:13;3.25;;;2.30;;
65896;SDS011;52677;50.898;10.854;2023-07-24T03:02:14;3.78;;;2.60;;
65896;SDS011;52677;50.898;10.854;2023-07-24T03:04:14;3.60;;;2.42;;
65896;SDS011;52677;50.898;10.854;2023-07-24T03:06:15;3.20;;;2.40;;
65896;SDS011;52677;50.898;10.854;2023-07-24T03:08:15;3.60;;;2.25;;
65896;SDS011;52677;50.898;10.854;2023-07-24T03:10:15;5.85;;;2.80;;
65896;SDS011;52677;50.898;10.854;2023-07-24T03:12:16;5.03;;;2.65;;
65896;SDS011;52677;50.898;10.854;2023-07-24T03:14:16;4.32;;;2.70;;
65896;SDS011;52677;50.898;10.854;2023-07-24T03:16:17;4.13;;;2.70;;
65896;SDS011;52677;50.898;10.854;2023-07-24T03:18:19;4.32;;;2.75;;
65896;SDS011;52677;50.898;10.854;2023-07-24T03:20:20;4.30;;;2.38;;
65896;SDS011;52677;50.898;10.854;2023-07-24T03:22:21;4.05;;;2.60;;
65896;SDS011;52677;50.898;10.854;2023-07-24T03:24:21;4.28;;;2.60;;
65896;SDS011;52677;50.898;10.854;2023-07-24T03:26:21;3.58;;;2.55;;
65896;SDS011;52677;50.898;10.854;2023-07-24T03:28:22;2.92;;;2.40;;
65896;SDS011;52677;50.898;10.854;2023-07-24T03:30:22;4.18;;;2.08;;
65896;SDS011;52677;50.898;10.854;2023-07-24T03:32:22;4.65;;;3.03;;
65896;SDS011;52677;50.898;10.854;2023-07-24T03:34:23;3.47;;;2.38;;
65896;SDS011;52677;50.898;10.854;2023-07-24T03:36:23;3.58;;;2.25;;
65896;SDS011;52677;50.898;10.854;2023-07-24T03:38:23;2.80;;;2.30;;
65896;SDS011;52677;50.898;10.854;2023-07-24T03:40:24;3.78;;;2.10;;
65896;SDS011;52677;50.898;10.854;2023-07-24T03:42:27;4.57;;;2.38;;
65896;SDS011;52677;50.898;10.854;2023-07-24T03:44:29;4.72;;;2.45;;
65896;SDS011;52677;50.898;10.854;2023-07-24T03:46:31;3.78;;;2.33;;
65896;SDS011;52677;50.898;10.854;2023-07-24T03:48:32;7.85;;;2.63;;
65896;SDS011;52677;50.898;10.854;2023-07-24T03:50:32;4.38;;;2.30;;
65896;SDS011;52677;50.898;10.854;2023-07-24T03:52:32;4.38;;;2.80;;
65896;SDS011;52677;50.898;10.854;2023-07-24T03:54:33;4.00;;;2.15;;
65896;SDS011;52677;50.898;10.854;2023-07-24T03:56:33;7.05;;;2.60;;
65896;SDS011;52677;50.898;10.854;2023-07-24T03:58:33;4.15;;;2.45;;
65896;SDS011;52677;50.898;10.854;2023-07-24T04:00:34;4.68;;;2.15;;
65896;SDS011;52677;50.898;10.854;2023-07-24T04:02:34;4.78;;;2.53;;
65896;SDS011;52677;50.898;10.854;2023-07-24T04:04:34;3.97;;;2.60;;
65896;SDS011;52677;50.898;10.854;2023-07-24T04:06:35;3.35;;;2.22;;
65896;SDS011;52677;50.898;10.854;2023-07-24T04:08:35;3.70;;;2.47;;
65896;SDS011;52677;50.898;10.854;2023-07-24T04:10:35;4.97;;;2.45;;
65896;SDS011;52677;50.898;10.854;2023-07-24T04:12:36;3.53;;;2.40;;
65896;SDS011;52677;50.898;10.854;2023-07-24T04:14:36;4.90;;;2.42;;
65896;SDS011;52677;50.898;10.854;2023-07-24T04:16:37;3.17;;;2.05;;
65896;SDS011;52677;50.898;10.854;2023-07-24T04:18:37;5.03;;;2.63;;
65896;SDS011;52677;50.898;10.854;2023-07-24T04:20:37;3.63;;;2.33;;
65896;SDS011;52677;50.898;10.854;2023-07-24T04:22:37;4.32;;;2.47;;
65896;SDS011;52677;50.898;10.854;2023-07-24T04:24:38;5.28;;;2.53;;
65896;SDS011;52677;50.898;10.854;2023-07-24T04:26:38;3.65;;;2.72;;
65896;SDS011;52677;50.898;10.854;2023-07-24T04:28:39;6.00;;;2.60;;
65896;SDS011;52677;50.898;10.854;2023-07-24T04:30:39;5.93;;;2.38;;
65896;SDS011;52677;50.898;10.854;2023-07-24T04:32:40;3.38;;;2.10;;
65896;SDS011;52677;50.898;10.854;2023-07-24T04:34:40;4.50;;;2.58;;
65896;SDS011;52677;50.898;10.854;2023-07-24T04:36:40;5.88;;;2.70;;
65896;SDS011;52677;50.898;10.854;2023-07-24T04:38:41;6.97;;;2.60;;
65896;SDS011;52677;50.898;10.854;2023-07-24T04:40:43;10.15;;;2.75;;
65896;SDS011;52677;50.898;10.854;2023-07-24T04:42:45;15.38;;;3.75;;
65896;SDS011;52677;50.898;10.854;2023-07-24T04:44:45;9.27;;;3.15;;
65896;SDS011;52677;50.898;10.854;2023-07-24T04:46:45;12.52;;;3.10;;
65896;SDS011;52677;50.898;10.854;2023-07-24T04:48:46;12.93;;;3.80;;
65896;SDS011;52677;50.898;10.854;2023-07-24T04:50:46;13.68;;;4.30;;
65896;SDS011;52677;50.898;10.854;2023-07-24T04:52:46;9.98;;;2.83;;
65896;SDS011;52677;50.898;10.854;2023-07-24T04:54:47;5.15;;;3.00;;
65896;SDS011;52677;50.898;10.854;2023-07-24T04:56:47;10.25;;;2.85;;
65896;SDS011;52677;50.898;10.854;2023-07-24T04:58:47;4.07;;;2.50;;
65896;SDS011;52677;50.898;10.854;2023-07-24T05:00:47;6.70;;;3.00;;
65896;SDS011;52677;50.898;10.854;2023-07-24T05:02:48;9.30;;;2.83;;
65896;SDS011;52677;50.898;10.854;2023-07-24T05:04:48;8.05;;;3.08;;
65896;SDS011;52677;50.898;10.854;2023-07-24T05:06:48;7.30;;;2.60;;
65896;SDS011;52677;50.898;10.854;2023-07-24T05:08:54;4.47;;;2.65;;
65896;SDS011;52677;50.898;10.854;2023-07-24T05:10:55;7.65;;;3.10;;
65896;SDS011;52677;50.898;10.854;2023-07-24T05:12:58;6.75;;;2.90;;
65896;SDS011;52677;50.898;10.854;2023-07-24T05:15:01;5.30;;;2.58;;
65896;SDS011;52677;50.898;10.854;2023-07-24T05:17:01;6.90;;;3.08;;
65896;SDS011;52677;50.898;10.854;2023-07-24T05:19:01;5.88;;;2.58;;
65896;SDS011;52677;50.898;10.854;2023-07-24T05:21:02;7.65;;;3.03;;
65896;SDS011;52677;50.898;10.854;2023-07-24T05:23:02;8.35;;;2.88;;
65896;SDS011;52677;50.898;10.854;2023-07-24T05:25:02;4.97;;;2.70;;
65896;SDS011;52677;50.898;10.854;2023-07-24T05:27:03;6.18;;;2.75;;
65896;SDS011;52677;50.898;10.854;2023-07-24T05:29:05;5.57;;;2.85;;
65896;SDS011;52677;50.898;10.854;2023-07-24T05:31:05;5.80;;;2.88;;
65896;SDS011;52677;50.898;10.854;2023-07-24T05:33:06;4.70;;;2.70;;
65896;SDS011;52677;50.898;10.854;2023-07-24T05:35:06;7.07;;;2.95;;
65896;SDS011;52677;50.898;10.854;2023-07-24T05:37:07;5.78;;;2.88;;
65896;SDS011;52677;50.898;10.854;2023-07-24T05:39:07;7.22;;;3.10;;
65896;SDS011;52677;50.898;10.854;2023-07-24T05:41:07;4.15;;;2.55;;
65896;SDS011;52677;50.898;10.854;2023-07-24T05:43:08;7.95;;;3.20;;
65896;SDS011;52677;50.898;10.854;2023-07-24T05:45:08;5.95;;;3.20;;
65896;SDS011;52677;50.898;10.854;2023-07-24T05:47:10;6.80;;;3.45;;
65896;SDS011;52677;50.898;10.854;2023-07-24T05:49:11;6.05;;;2.78;;
65896;SDS011;52677;50.898;10.854;2023-07-24T05:51:11;3.65;;;2.70;;
65896;SDS011;52677;50.898;10.854;2023-07-24T05:53:11;5.35;;;3.17;;
65896;SDS011;52677;50.898;10.854;2023-07-24T05:55:12;6.10;;;3.03;;
65896;SDS011;52677;50.898;10.854;2023-07-24T05:57:12;5.05;;;3.13;;
65896;SDS011;52677;50.898;10.854;2023-07-24T05:59:12;5.22;;;2.83;;
65896;SDS011;52677;50.898;10.854;2023-07-24T06:01:13;6.38;;;3.08;;
65896;SDS011;52677;50.898;10.854;2023-07-24T06:03:13;5.15;;;3.03;;
65896;SDS011;52677;50.898;10.854;2023-07-24T06:05:14;4.88;;;2.97;;
65896;SDS011;52677;50.898;10.854;2023-07-24T06:07:14;6.40;;;3.60;;
65896;SDS011;52677;50.898;10.854;2023-07-24T06:09:15;5.35;;;2.72;;
65896;SDS011;52677;50.898;10.854;2023-07-24T06:11:15;4.60;;;3.10;;
65896;SDS011;52677;50.898;10.854;2023-07-24T06:13:16;7.88;;;3.35;;
65896;SDS011;52677;50.898;10.854;2023-07-24T06:15:16;4.95;;;3.63;;
65896;SDS011;52677;50.898;10.854;2023-07-24T06:17:17;4.07;;;3.08;;
65896;SDS011;52677;50.898;10.854;2023-07-24T06:19:17;4.40;;;3.00;;
65896;SDS011;52677;50.898;10.854;2023-07-24T06:21:17;4.53;;;3.30;;
65896;SDS011;52677;50.898;10.854;2023-07-24T06:23:17;6.45;;;3.20;;
65896;SDS011;52677;50.898;10.854;2023-07-24T06:25:18;5.47;;;3.58;;
65896;SDS011;52677;50.898;10.854;2023-07-24T06:27:18;6.20;;;3.17;;
65896;SDS011;52677;50.898;10.854;2023-07-24T06:29:18;7.10;;;3.30;;
65896;SDS011;52677;50.898;10.854;2023-07-24T06:31:19;5.10;;;3.42;;
65896;SDS011;52677;50.898;10.854;2023-07-24T06:33:19;6.00;;;2.95;;
65896;SDS011;52677;50.898;10.854;2023-07-24T06:35:21;4.82;;;3.03;;
65896;SDS011;52677;50.898;10.854;2023-07-24T06:37:21;5.28;;;3.20;;
65896;SDS011;52677;50.898;10.854;2023-07-24T06:39:21;6.43;;;3.13;;
65896;SDS011;52677;50.898;10.854;2023-07-24T06:41:22;5.28;;;2.78;;
65896;SDS011;52677;50.898;10.854;2023-07-24T06:43:23;4.07;;;2.80;;
65896;SDS011;52677;50.898;10.854;2023-07-24T06:45:23;4.80;;;2.95;;
65896;SDS011;52677;50.898;10.854;2023-07-24T06:47:23;4.55;;;3.20;;
65896;SDS011;52677;50.898;10.854;2023-07-24T06:49:24;4.10;;;2.80;;
65896;SDS011;52677;50.898;10.854;2023-07-24T06:51:25;5.38;;;3.25;;
65896;SDS011;52677;50.898;10.854;2023-07-24T06:53:25;8.07;;;3.35;;
65896;SDS011;52677;50.898;10.854;2023-07-24T06:55:25;4.82;;;3.35;;
65896;SDS011;52677;50.898;10.854;2023-07-24T06:57:26;5.97;;;2.88;;
65896;SDS011;52677;50.898;10.854;2023-07-24T06:59:26;4.68;;;3.15;;
65896;SDS011;52677;50.898;10.854;2023-07-24T07:01:26;6.20;;;3.53;;
65896;SDS011;52677;50.898;10.854;2023-07-24T07:03:27;4.40;;;2.97;;
65896;SDS011;52677;50.898;10.854;2023-07-24T07:05:27;4.93;;;3.47;;
65896;SDS011;52677;50.898;10.854;2023-07-24T07:07:27;4.40;;;3.00;;
65896;SDS011;52677;50.898;10.854;2023-07-24T07:09:28;9.80;;;3.28;;
65896;SDS011;52677;50.898;10.854;2023-07-24T07:11:28;6.10;;;3.50;;
65896;SDS011;52677;50.898;10.854;2023-07-24T07:13:29;5.70;;;3.10;;
65896;SDS011;52677;50.898;10.854;2023-07-24T07:15:29;5.35;;;3.20;;
65896;SDS011;52677;50.898;10.854;2023-07-24T07:17:29;4.82;;;3.50;;
65896;SDS011;52677;50.898;10.854;2023-07-24T07:19:31;4.72;;;3.10;;
65896;SDS011;52677;50.898;10.854;2023-07-24T07:21:31;7.30;;;3.03;;
65896;SDS011;52677;50.898;10.854;2023-07-24T07:23:31;4.60;;;2.60;;
65896;SDS011;52677;50.898;10.854;2023-07-24T07:25:31;6.72;;;3.13;;
65896;SDS011;52677;50.898;10.854;2023-07-24T07:27:32;5.32;;;3.35;;
65896;SDS011;52677;50.898;10.854;2023-07-24T07:29:32;5.00;;;3.42;;
65896;SDS011;52677;50.898;10.854;2023-07-24T07:31:32;4.35;;;2.92;;
65896;SDS011;52677;50.898;10.854;2023-07-24T07:33:33;6.20;;;3.35;;
65896;SDS011;52677;50.898;10.854;2023-07-24T07:35:34;7.03;;;3.58;;
65896;SDS011;52677;50.898;10.854;2023-07-24T07:37:35;5.70;;;2.93;;
65896;SDS011;52677;50.898;10.854;2023-07-24T07:39:35;4.10;;;3.03;;
65896;SDS011;52677;50.898;10.854;2023-07-24T07:41:36;4.30;;;3.00;;
65896;SDS011;52677;50.898;10.854;2023-07-24T07:43:36;6.75;;;3.75;;
65896;SDS011;52677;50.898;10.854;2023-07-24T07:45:37;4.57;;;3.20;;
65896;SDS011;52677;50.898;10.854;2023-07-24T07:47:38;4.88;;;3.15;;
65896;SDS011;52677;50.898;10.854;2023-07-24T07:49:38;5.50;;;3.00;;
65896;SDS011;52677;50.898;10.854;2023-07-24T07:51:40;6.22;;;3.60;;
65896;SDS011;52677;50.898;10.854;2023-07-24T07:53:40;5.88;;;3.20;;
65896;SDS011;52677;50.898;10.854;2023-07-24T07:55:40;5.20;;;3.30;;
65896;SDS011;52677;50.898;10.854;2023-07-24T07:57:41;5.22;;;3.35;;
65896;SDS011;52677;50.898;10.854;2023-07-24T07:59:41;4.35;;;3.25;;
65896;SDS011;52677;50.898;10.854;2023-07-24T08:01:42;4.55;;;3.08;;
65896;SDS011;52677;50.898;10.854;2023-07-24T08:03:42;6.85;;;3.13;;
65896;SDS011;52677;50.898;10.854;2023-07-24T08:05:42;5.82;;;3.03;;
65896;SDS011;52677;50.898;10.854;2023-07-24T08:07:43;6.30;;;3.15;;
65896;SDS011;52677;50.898;10.854;2023-07-24T08:09:43;7.70;;;2.97;;
65896;SDS011;52677;50.898;10.854;2023-07-24T08:11:45;5.00;;;2.92;;
65896;SDS011;52677;50.898;10.854;2023-07-24T08:13:46;5.82;;;3.10;;
65896;SDS011;52677;50.898;10.854;2023-07-24T08:15:46;4.88;;;3.22;;
65896;SDS011;52677;50.898;10.854;2023-07-24T08:17:46;4.22;;;3.05;;
65896;SDS011;52677;50.898;10.854;2023-07-24T08:19:46;5.57;;;3.10;;
65896;SDS011;52677;50.898;10.854;2023-07-24T08:21:47;5.70;;;3.10;;
65896;SDS011;52677;50.898;10.854;2023-07-24T08:23:47;5.97;;;3.25;;
65896;SDS011;52677;50.898;10.854;2023-07-24T08:25:51;6.07;;;3.65;;
65896;SDS011;52677;50.898;10.854;2023-07-24T08:27:54;4.75;;;3.60;;
65896;SDS011;52677;50.898;10.854;2023-07-24T08:29:55;4.47;;;3.10;;
65896;SDS011;52677;50.898;10.854;2023-07-24T08:31:55;4.18;;;2.97;;
65896;SDS011;52677;50.898;10.854;2023-07-24T08:33:56;4.40;;;3.10;;
65896;SDS011;52677;50.898;10.854;2023-07-24T08:36:06;5.85;;;3.40;;
65896;SDS011;52677;50.898;10.854;2023-07-24T08:38:07;6.90;;;3.42;;
65896;SDS011;52677;50.898;10.854;2023-07-24T08:40:07;8.38;;;3.80;;
65896;SDS011;52677;50.898;10.854;2023-07-24T08:42:11;5.82;;;3.40;;
65896;SDS011;52677;50.898;10.854;2023-07-24T08:44:12;7.15;;;3.90;;
65896;SDS011;52677;50.898;10.854;2023-07-24T08:46:13;4.95;;;4.00;;
65896;SDS011;52677;50.898;10.854;2023-07-24T08:48:14;7.78;;;3.58;;
65896;SDS011;52677;50.898;10.854;2023-07-24T08:50:15;5.28;;;3.58;;
65896;SDS011;52677;50.898;10.854;2023-07-24T08:52:17;4.82;;;3.63;;
65896;SDS011;52677;50.898;10.854;2023-07-24T08:54:18;7.05;;;3.55;;
65896;SDS011;52677;50.898;10.854;2023-07-24T08:56:19;4.75;;;3.42;;
65896;SDS011;52677;50.898;10.854;2023-07-24T08:58:20;4.18;;;3.20;;
65896;SDS011;52677;50.898;10.854;2023-07-24T09:00:20;6.22;;;3.53;;
65896;SDS011;52677;50.898;10.854;2023-07-24T09:02:20;6.15;;;3.85;;
65896;SDS011;52677;50.898;10.854;2023-07-24T09:04:21;5.60;;;3.58;;
65896;SDS011;52677;50.898;10.854;2023-07-24T09:06:21;9.27;;;3.97;;
65896;SDS011;52677;50.898;10.854;2023-07-24T09:08:28;4.72;;;3.30;;
65896;SDS011;52677;50.898;10.854;2023-07-24T09:10:32;9.18;;;3.30;;
65896;SDS011;52677;50.898;10.854;2023-07-24T09:12:32;8.50;;;3.63;;
65896;SDS011;52677;50.898;10.854;2023-07-24T09:14:33;11.27;;;4.18;;
65896;SDS011;52677;50.898;10.854;2023-07-24T09:16:33;6.72;;;3.70;;
65896;SDS011;52677;50.898;10.854;2023-07-24T09:18:40;5.63;;;3.83;;
65896;SDS011;52677;50.898;10.854;2023-07-24T09:20:42;5.18;;;3.40;;
65896;SDS011;52677;50.898;10.854;2023-07-24T09:22:50;6.80;;;3.65;;
65896;SDS011;52677;50.898;10.854;2023-07-24T09:24:54;4.10;;;2.83;;
65896;SDS011;52677;50.898;10.854;2023-07-24T09:28:56;4.57;;;3.40;;
65896;SDS011;52677;50.898;10.854;2023-07-24T09:30:57;5.20;;;3.63;;
65896;SDS011;52677;50.898;10.854;2023-07-24T09:33:00;5.60;;;3.55;;
65896;SDS011;52677;50.898;10.854;2023-07-24T09:35:00;4.93;;;3.80;;
65896;SDS011;52677;50.898;10.854;2023-07-24T09:37:01;5.88;;;3.78;;
65896;SDS011;52677;50.898;10.854;2023-07-24T09:39:01;8.32;;;4.65;;
65896;SDS011;52677;50.898;10.854;2023-07-24T09:41:06;8.82;;;4.50;;
65896;SDS011;52677;50.898;10.854;2023-07-24T09:43:26;7.55;;;4.03;;
65896;SDS011;52677;50.898;10.854;2023-07-24T09:45:28;9.73;;;4.88;;
65896;SDS011;52677;50.898;10.854;2023-07-24T09:47:29;6.45;;;4.55;;
65896;SDS011;52677;50.898;10.854;2023-07-24T09:49:30;8.45;;;4.22;;
65896;SDS011;52677;50.898;10.854;2023-07-24T09:51:30;8.95;;;4.97;;
65896;SDS011;52677;50.898;10.854;2023-07-24T09:53:32;6.13;;;4.07;;
65896;SDS011;52677;50.898;10.854;2023-07-24T09:55:41;7.25;;;4.63;;
65896;SDS011;52677;50.898;10.854;2023-07-24T09:57:48;7.03;;;4.40;;
65896;SDS011;52677;50.898;10.854;2023-07-24T09:59:51;7.25;;;4.75;;
65896;SDS011;52677;50.898;10.854;2023-07-24T10:01:53;8.70;;;4.50;;
65896;SDS011;52677;50.898;10.854;2023-07-24T10:03:54;6.57;;;4.97;;
65896;SDS011;52677;50.898;10.854;2023-07-24T10:05:55;8.68;;;4.80;;
65896;SDS011;52677;50.898;10.854;2023-07-24T10:07:55;6.20;;;4.35;;
65896;SDS011;52677;50.898;10.854;2023-07-24T10:09:56;7.20;;;5.00;;
65896;SDS011;52677;50.898;10.854;2023-07-24T10:11:57;6.72;;;4.22;;
65896;SDS011;52677;50.898;10.854;2023-07-24T10:13:57;11.10;;;4.70;;
65896;SDS011;52677;50.898;10.854;2023-07-24T10:15:58;7.72;;;4.10;;
65896;SDS011;52677;50.898;10.854;2023-07-24T10:18:06;9.05;;;4.68;;
65896;SDS011;52677;50.898;10.854;2023-07-24T10:20:08;6.82;;;4.63;;
65896;SDS011;52677;50.898;10.854;2023-07-24T10:22:20;5.88;;;4.47;;
65896;SDS011;52677;50.898;10.854;2023-07-24T10:24:20;6.88;;;4.88;;
65896;SDS011;52677;50.898;10.854;2023-07-24T10:26:29;6.25;;;4.50;;
65896;SDS011;52677;50.898;10.854;2023-07-24T10:28:31;10.50;;;5.23;;
65896;SDS011;52677;50.898;10.854;2023-07-24T10:30:38;7.68;;;4.93;;
65896;SDS011;52677;50.898;10.854;2023-07-24T10:32:47;5.70;;;3.97;;
65896;SDS011;52677;50.898;10.854;2023-07-24T10:34:57;6.28;;;4.70;;
65896;SDS011;52677;50.898;10.854;2023-07-24T10:37:03;8.15;;;5.00;;
65896;SDS011;52677;50.898;10.854;2023-07-24T10:39:13;9.75;;;5.00;;
65896;SDS011;52677;50.898;10.854;2023-07-24T10:41:19;18.10;;;4.75;;
65896;SDS011;52677;50.898;10.854;2023-07-24T10:43:20;12.93;;;4.97;;
65896;SDS011;52677;50.898;10.854;2023-07-24T10:45:24;6.57;;;4.80;;
65896;SDS011;52677;50.898;10.854;2023-07-24T10:47:25;8.45;;;5.05;;
65896;SDS011;52677;50.898;10.854;2023-07-24T10:49:25;5.97;;;4.68;;
65896;SDS011;52677;50.898;10.854;2023-07-24T10:51:25;7.70;;;4.95;;
65896;SDS011;52677;50.898;10.854;2023-07-24T10:53:26;8.10;;;4.78;;
65896;SDS011;52677;50.898;10.854;2023-07-24T10:55:26;7.35;;;4.53;;
65896;SDS011;52677;50.898;10.854;2023-07-24T10:57:27;8.63;;;4.75;;
65896;SDS011;52677;50.898;10.854;2023-07-24T10:59:38;5.70;;;4.30;;
65896;SDS011;52677;50.898;10.854;2023-07-24T11:01:38;7.40;;;4.70;;
65896;SDS011;52677;50.898;10.854;2023-07-24T11:03:39;8.23;;;4.82;;
65896;SDS011;52677;50.898;10.854;2023-07-24T11:05:44;6.75;;;5.00;;
65896;SDS011;52677;50.898;10.854;2023-07-24T11:07:45;7.47;;;4.93;;
65896;SDS011;52677;50.898;10.854;2023-07-24T11:09:46;7.47;;;5.15;;
65896;SDS011;52677;50.898;10.854;2023-07-24T11:11:46;6.82;;;5.18;;
65896;SDS011;52677;50.898;10.854;2023-07-24T11:13:46;7.22;;;5.15;;
65896;SDS011;52677;50.898;10.854;2023-07-24T11:15:47;7.25;;;5.05;;
65896;SDS011;52677;50.898;10.854;2023-07-24T11:17:48;11.60;;;5.28;;
65896;SDS011;52677;50.898;10.854;2023-07-24T11:19:49;11.52;;;5.30;;
65896;SDS011;52677;50.898;10.854;2023-07-24T11:21:49;12.00;;;5.50;;
65896;SDS011;52677;50.898;10.854;2023-07-24T11:23:51;9.77;;;5.15;;
65896;SDS011;52677;50.898;10.854;2023-07-24T11:25:53;7.53;;;5.63;;
65896;SDS011;52677;50.898;10.854;2023-07-24T11:27:54;9.57;;;5.50;;
65896;SDS011;52677;50.898;10.854;2023-07-24T11:29:54;9.07;;;5.60;;
65896;SDS011;52677;50.898;10.854;2023-07-24T11:31:55;6.20;;;4.88;;
65896;SDS011;52677;50.898;10.854;2023-07-24T11:33:56;8.25;;;5.30;;
65896;SDS011;52677;50.898;10.854;2023-07-24T11:35:57;10.77;;;4.93;;
65896;SDS011;52677;50.898;10.854;2023-07-24T11:37:58;7.43;;;5.15;;
65896;SDS011;52677;50.898;10.854;2023-07-24T11:39:59;8.90;;;5.10;;
65896;SDS011;52677;50.898;10.854;2023-07-24T11:42:04;8.02;;;5.53;;
65896;SDS011;52677;50.898;10.854;2023-07-24T11:44:05;9.88;;;5.25;;
65896;SDS011;52677;50.898;10.854;2023-07-24T11:46:05;7.88;;;5.57;;
65896;SDS011;52677;50.898;10.854;2023-07-24T11:48:08;6.65;;;4.68;;
65896;SDS011;52677;50.898;10.854;2023-07-24T11:50:10;6.13;;;5.13;;
65896;SDS011;52677;50.898;10.854;2023-07-24T11:52:11;7.75;;;4.85;;
65896;SDS011;52677;50.898;10.854;2023-07-24T11:54:11;5.93;;;4.45;;
65896;SDS011;52677;50.898;10.854;2023-07-24T11:56:15;8.10;;;4.90;;
65896;SDS011;52677;50.898;10.854;2023-07-24T11:58:17;12.68;;;5.13;;
65896;SDS011;52677;50.898;10.854;2023-07-24T12:00:19;7.90;;;4.85;;
65896;SDS011;52677;50.898;10.854;2023-07-24T12:02:21;9.07;;;5.07;;
65896;SDS011;52677;50.898;10.854;2023-07-24T12:04:22;10.13;;;5.43;;
65896;SDS011;52677;50.898;10.854;2023-07-24T12:06:22;7.30;;;5.10;;
65896;SDS011;52677;50.898;10.854;2023-07-24T12:08:31;13.80;;;5.28;;
65896;SDS011;52677;50.898;10.854;2023-07-24T12:10:38;9.32;;;4.93;;
65896;SDS011;52677;50.898;10.854;2023-07-24T12:12:48;9.73;;;5.90;;
65896;SDS011;52677;50.898;10.854;2023-07-24T12:14:48;8.55;;;4.93;;
65896;SDS011;52677;50.898;10.854;2023-07-24T12:16:48;7.80;;;4.95;;